sensor_id;sensor_type;location;lat;lon;timestamp;P1;durP1;ratioP1;P2;durP2;ratioP2
9140;SDS011;46330;50.822;7.126;2023-08-06T00:00:25;5.63;;;2.83;;
9140;SDS011;46330;50.822;7.126;2023-08-06T00:02:53;3.85;;;2.90;;
9140;SDS011;46330;50.822;7.126;2023-08-06T00:05:21;6.20;;;2.63;;
9140;SDS011;46330;50.822;7.126;2023-08-06T00:07:51;3.65;;;2.38;;
9140;SDS011;46330;50.822;7.126;2023-08-06T00:10:19;5.13;;;2.80;;
9140;SDS011;46330;50.822;7.126;2023-08-06T00:12:47;5.13;;;2.60;;
9140;SDS011;46330;50.822;7.126;2023-08-06T00:15:15;4.05;;;2.90;;
9140;SDS011;46330;50.822;7.126;2023-08-06T00:17:43;4.57;;;2.88;;
9140;SDS011;46330;50.822;7.126;2023-08-06T00:20:20;8.52;;;2.92;;
9140;SDS011;46330;50.822;7.126;2023-08-06T00:22:48;4.88;;;2.70;;
9140;SDS011;46330;50.822;7.126;2023-08-06T00:25:17;5.28;;;2.60;;
9140;SDS011;46330;50.822;7.126;2023-08-06T00:27:46;4.25;;;2.80;;
9140;SDS011;46330;50.822;7.126;2023-08-06T00:30:14;6.35;;;3.10;;
9140;SDS011;46330;50.822;7.126;2023-08-06T00:32:43;4.95;;;2.75;;
9140;SDS011;46330;50.822;7.126;2023-08-06T00:35:11;5.03;;;3.10;;
9140;SDS011;46330;50.822;7.126;2023-08-06T00:37:40;6.28;;;3.03;;
9140;SDS011;46330;50.822;7.126;2023-08-06T00:40:09;5.60;;;3.10;;
9140;SDS011;46330;50.822;7.126;2023-08-06T00:42:39;5.72;;;3.20;;
9140;SDS011;46330;50.822;7.126;2023-08-06T00:45:07;5.75;;;3.00;;
9140;SDS011;46330;50.822;7.126;2023-08-06T00:47:35;5.30;;;3.20;;
9140;SDS011;46330;50.822;7.126;2023-08-06T00:50:06;5.53;;;3.30;;
9140;SDS011;46330;50.822;7.126;2023-08-06T00:52:36;6.03;;;3.15;;
9140;SDS011;46330;50.822;7.126;2023-08-06T00:55:05;6.50;;;3.15;;
9140;SDS011;46330;50.822;7.126;2023-08-06T00:57:34;7.05;;;3.15;;
9140;SDS011;46330;50.822;7.126;2023-08-06T01:00:04;6.28;;;3.45;;
9140;SDS011;46330;50.822;7.126;2023-08-06T01:02:33;8.10;;;3.38;;
9140;SDS011;46330;50.822;7.126;2023-08-06T01:05:01;5.47;;;3.33;;
9140;SDS011;46330;50.822;7.126;2023-08-06T01:07:33;6.40;;;3.38;;
9140;SDS011;46330;50.822;7.126;2023-08-06T01:10:16;8.57;;;4.10;;
9140;SDS011;46330;50.822;7.126;2023-08-06T01:12:55;6.85;;;3.42;;
9140;SDS011;46330;50.822;7.126;2023-08-06T01:15:38;6.25;;;3.60;;
9140;SDS011;46330;50.822;7.126;2023-08-06T01:18:11;4.70;;;3.10;;
9140;SDS011;46330;50.822;7.126;2023-08-06T01:20:41;4.20;;;3.35;;
9140;SDS011;46330;50.822;7.126;2023-08-06T01:23:09;6.28;;;3.60;;
9140;SDS011;46330;50.822;7.126;2023-08-06T01:25:39;5.95;;;3.60;;
9140;SDS011;46330;50.822;7.126;2023-08-06T01:28:21;7.35;;;3.40;;
9140;SDS011;46330;50.822;7.126;2023-08-06T01:30:54;5.35;;;3.45;;
9140;SDS011;46330;50.822;7.126;2023-08-06T01:33:26;5.53;;;3.40;;
9140;SDS011;46330;50.822;7.126;2023-08-06T01:36:00;5.60;;;3.15;;
9140;SDS011;46330;50.822;7.126;2023-08-06T01:38:31;5.07;;;3.42;;
9140;SDS011;46330;50.822;7.126;2023-08-06T01:40:59;11.95;;;3.60;;
9140;SDS011;46330;50.822;7.126;2023-08-06T01:43:27;4.13;;;2.97;;
9140;SDS011;46330;50.822;7.126;2023-08-06T01:45:54;5.45;;;3.33;;
9140;SDS011;46330;50.822;7.126;2023-08-06T01:48:23;4.88;;;3.05;;
9140;SDS011;46330;50.822;7.126;2023-08-06T01:50:51;4.25;;;2.88;;
9140;SDS011;46330;50.822;7.126;2023-08-06T01:53:21;5.10;;;3.30;;
9140;SDS011;46330;50.822;7.126;2023-08-06T01:55:48;8.13;;;3.30;;
9140;SDS011;46330;50.822;7.126;2023-08-06T01:58:18;5.80;;;3.22;;
9140;SDS011;46330;50.822;7.126;2023-08-06T02:00:46;5.57;;;3.33;;
9140;SDS011;46330;50.822;7.126;2023-08-06T02:03:14;9.10;;;3.22;;
9140;SDS011;46330;50.822;7.126;2023-08-06T02:05:42;6.20;;;3.15;;
9140;SDS011;46330;50.822;7.126;2023-08-06T02:08:10;5.47;;;2.85;;
9140;SDS011;46330;50.822;7.126;2023-08-06T02:10:39;5.25;;;3.17;;
9140;SDS011;46330;50.822;7.126;2023-08-06T02:13:08;7.45;;;3.20;;
9140;SDS011;46330;50.822;7.126;2023-08-06T02:15:36;7.75;;;3.13;;
9140;SDS011;46330;50.822;7.126;2023-08-06T02:18:09;6.55;;;3.40;;
9140;SDS011;46330;50.822;7.126;2023-08-06T02:20:37;6.10;;;3.33;;
9140;SDS011;46330;50.822;7.126;2023-08-06T02:23:04;6.25;;;3.70;;
9140;SDS011;46330;50.822;7.126;2023-08-06T02:25:32;6.10;;;3.30;;
9140;SDS011;46330;50.822;7.126;2023-08-06T02:28:02;5.47;;;3.45;;
9140;SDS011;46330;50.822;7.126;2023-08-06T02:30:30;6.82;;;3.40;;
9140;SDS011;46330;50.822;7.126;2023-08-06T02:32:58;4.38;;;3.08;;
9140;SDS011;46330;50.822;7.126;2023-08-06T02:35:26;4.40;;;3.03;;
9140;SDS011;46330;50.822;7.126;2023-08-06T02:37:54;6.85;;;3.15;;
9140;SDS011;46330;50.822;7.126;2023-08-06T02:40:22;5.18;;;2.95;;
9140;SDS011;46330;50.822;7.126;2023-08-06T02:42:50;7.18;;;3.20;;
9140;SDS011;46330;50.822;7.126;2023-08-06T02:45:19;3.80;;;2.78;;
9140;SDS011;46330;50.822;7.126;2023-08-06T02:47:47;5.28;;;2.90;;
9140;SDS011;46330;50.822;7.126;2023-08-06T02:50:18;6.80;;;2.97;;
9140;SDS011;46330;50.822;7.126;2023-08-06T02:52:45;4.40;;;2.92;;
9140;SDS011;46330;50.822;7.126;2023-08-06T02:55:13;4.88;;;3.20;;
9140;SDS011;46330;50.822;7.126;2023-08-06T02:57:44;6.78;;;3.38;;
9140;SDS011;46330;50.822;7.126;2023-08-06T03:00:13;4.90;;;3.13;;
9140;SDS011;46330;50.822;7.126;2023-08-06T03:02:43;6.72;;;3.03;;
9140;SDS011;46330;50.822;7.126;2023-08-06T03:05:37;4.68;;;2.95;;
9140;SDS011;46330;50.822;7.126;2023-08-06T03:08:05;4.30;;;3.45;;
9140;SDS011;46330;50.822;7.126;2023-08-06T03:10:35;6.63;;;3.25;;
9140;SDS011;46330;50.822;7.126;2023-08-06T03:13:04;6.60;;;2.85;;
9140;SDS011;46330;50.822;7.126;2023-08-06T03:15:32;6.07;;;3.30;;
9140;SDS011;46330;50.822;7.126;2023-08-06T03:18:03;5.90;;;3.00;;
9140;SDS011;46330;50.822;7.126;2023-08-06T03:20:32;3.97;;;2.85;;
9140;SDS011;46330;50.822;7.126;2023-08-06T03:23:00;5.63;;;3.05;;
9140;SDS011;46330;50.822;7.126;2023-08-06T03:25:30;4.50;;;2.88;;
9140;SDS011;46330;50.822;7.126;2023-08-06T03:27:58;4.43;;;3.10;;
9140;SDS011;46330;50.822;7.126;2023-08-06T03:30:26;4.43;;;2.90;;
9140;SDS011;46330;50.822;7.126;2023-08-06T03:32:54;4.85;;;2.97;;
9140;SDS011;46330;50.822;7.126;2023-08-06T03:35:23;5.35;;;3.22;;
9140;SDS011;46330;50.822;7.126;2023-08-06T03:37:52;6.28;;;3.00;;
9140;SDS011;46330;50.822;7.126;2023-08-06T03:40:19;4.50;;;3.15;;
9140;SDS011;46330;50.822;7.126;2023-08-06T03:42:48;5.63;;;3.00;;
9140;SDS011;46330;50.822;7.126;2023-08-06T03:45:16;4.32;;;2.85;;
9140;SDS011;46330;50.822;7.126;2023-08-06T03:47:44;4.80;;;3.33;;
9140;SDS011;46330;50.822;7.126;2023-08-06T03:50:12;5.53;;;3.10;;
9140;SDS011;46330;50.822;7.126;2023-08-06T03:52:42;4.53;;;2.92;;
9140;SDS011;46330;50.822;7.126;2023-08-06T03:55:10;5.70;;;3.05;;
9140;SDS011;46330;50.822;7.126;2023-08-06T03:57:38;4.35;;;2.80;;
9140;SDS011;46330;50.822;7.126;2023-08-06T04:00:08;6.75;;;2.65;;
9140;SDS011;46330;50.822;7.126;2023-08-06T04:02:47;4.80;;;2.95;;
9140;SDS011;46330;50.822;7.126;2023-08-06T04:05:15;6.97;;;3.10;;
9140;SDS011;46330;50.822;7.126;2023-08-06T04:07:45;4.78;;;2.67;;
9140;SDS011;46330;50.822;7.126;2023-08-06T04:10:13;4.93;;;2.63;;
9140;SDS011;46330;50.822;7.126;2023-08-06T04:12:41;7.38;;;2.78;;
9140;SDS011;46330;50.822;7.126;2023-08-06T04:15:09;5.57;;;2.70;;
9140;SDS011;46330;50.822;7.126;2023-08-06T04:17:37;8.60;;;3.05;;
9140;SDS011;46330;50.822;7.126;2023-08-06T04:20:06;4.63;;;2.70;;
9140;SDS011;46330;50.822;7.126;2023-08-06T04:22:34;5.00;;;2.90;;
9140;SDS011;46330;50.822;7.126;2023-08-06T04:25:05;8.63;;;3.10;;
9140;SDS011;46330;50.822;7.126;2023-08-06T04:27:34;8.20;;;2.83;;
9140;SDS011;46330;50.822;7.126;2023-08-06T04:30:03;3.97;;;2.70;;
9140;SDS011;46330;50.822;7.126;2023-08-06T04:32:36;4.85;;;2.80;;
9140;SDS011;46330;50.822;7.126;2023-08-06T04:35:06;6.15;;;2.70;;
9140;SDS011;46330;50.822;7.126;2023-08-06T04:37:36;7.78;;;3.40;;
9140;SDS011;46330;50.822;7.126;2023-08-06T04:40:06;6.22;;;3.00;;
9140;SDS011;46330;50.822;7.126;2023-08-06T04:42:34;5.05;;;2.97;;
9140;SDS011;46330;50.822;7.126;2023-08-06T04:45:02;4.80;;;2.80;;
9140;SDS011;46330;50.822;7.126;2023-08-06T04:47:31;5.75;;;2.72;;
9140;SDS011;46330;50.822;7.126;2023-08-06T04:49:59;7.00;;;2.78;;
9140;SDS011;46330;50.822;7.126;2023-08-06T04:52:27;5.22;;;2.90;;
9140;SDS011;46330;50.822;7.126;2023-08-06T04:54:55;4.30;;;2.80;;
9140;SDS011;46330;50.822;7.126;2023-08-06T04:57:24;7.85;;;3.03;;
9140;SDS011;46330;50.822;7.126;2023-08-06T04:59:52;4.95;;;3.08;;
9140;SDS011;46330;50.822;7.126;2023-08-06T05:02:20;4.50;;;2.80;;
9140;SDS011;46330;50.822;7.126;2023-08-06T05:04:48;8.23;;;3.70;;
9140;SDS011;46330;50.822;7.126;2023-08-06T05:07:16;7.15;;;3.00;;
9140;SDS011;46330;50.822;7.126;2023-08-06T05:09:44;6.32;;;2.85;;
9140;SDS011;46330;50.822;7.126;2023-08-06T05:12:12;5.80;;;2.85;;
9140;SDS011;46330;50.822;7.126;2023-08-06T05:14:41;4.53;;;2.60;;
9140;SDS011;46330;50.822;7.126;2023-08-06T05:17:09;5.00;;;2.70;;
9140;SDS011;46330;50.822;7.126;2023-08-06T05:19:37;6.53;;;3.00;;
9140;SDS011;46330;50.822;7.126;2023-08-06T05:22:05;8.07;;;4.03;;
9140;SDS011;46330;50.822;7.126;2023-08-06T05:24:33;5.20;;;2.67;;
9140;SDS011;46330;50.822;7.126;2023-08-06T05:27:01;4.15;;;2.60;;
9140;SDS011;46330;50.822;7.126;2023-08-06T05:29:29;5.60;;;2.88;;
9140;SDS011;46330;50.822;7.126;2023-08-06T05:31:58;5.00;;;2.85;;
9140;SDS011;46330;50.822;7.126;2023-08-06T05:34:26;4.97;;;2.72;;
9140;SDS011;46330;50.822;7.126;2023-08-06T05:36:54;5.55;;;2.70;;
9140;SDS011;46330;50.822;7.126;2023-08-06T05:39:22;4.43;;;2.80;;
9140;SDS011;46330;50.822;7.126;2023-08-06T05:41:50;5.75;;;2.53;;
9140;SDS011;46330;50.822;7.126;2023-08-06T05:44:19;4.45;;;2.50;;
9140;SDS011;46330;50.822;7.126;2023-08-06T05:46:47;5.95;;;2.20;;
9140;SDS011;46330;50.822;7.126;2023-08-06T05:49:17;4.10;;;2.00;;
9140;SDS011;46330;50.822;7.126;2023-08-06T05:51:45;4.47;;;2.08;;
9140;SDS011;46330;50.822;7.126;2023-08-06T05:54:13;2.95;;;2.00;;
9140;SDS011;46330;50.822;7.126;2023-08-06T05:56:41;3.13;;;1.73;;
9140;SDS011;46330;50.822;7.126;2023-08-06T05:59:09;3.10;;;1.90;;
9140;SDS011;46330;50.822;7.126;2023-08-06T06:01:37;3.75;;;1.75;;
9140;SDS011;46330;50.822;7.126;2023-08-06T06:04:05;3.65;;;1.70;;
9140;SDS011;46330;50.822;7.126;2023-08-06T06:06:34;4.22;;;2.00;;
9140;SDS011;46330;50.822;7.126;2023-08-06T06:09:02;2.95;;;1.80;;
9140;SDS011;46330;50.822;7.126;2023-08-06T06:11:30;3.78;;;1.77;;
9140;SDS011;46330;50.822;7.126;2023-08-06T06:13:58;2.63;;;1.45;;
9140;SDS011;46330;50.822;7.126;2023-08-06T06:16:26;2.10;;;1.70;;
9140;SDS011;46330;50.822;7.126;2023-08-06T06:18:54;2.38;;;1.80;;
9140;SDS011;46330;50.822;7.126;2023-08-06T06:21:23;4.15;;;1.77;;
9140;SDS011;46330;50.822;7.126;2023-08-06T06:23:53;2.28;;;1.50;;
9140;SDS011;46330;50.822;7.126;2023-08-06T06:26:20;2.60;;;1.35;;
9140;SDS011;46330;50.822;7.126;2023-08-06T06:28:48;3.50;;;1.60;;
9140;SDS011;46330;50.822;7.126;2023-08-06T06:31:16;1.90;;;1.30;;
9140;SDS011;46330;50.822;7.126;2023-08-06T06:33:44;2.65;;;1.40;;
9140;SDS011;46330;50.822;7.126;2023-08-06T06:36:12;2.60;;;1.55;;
9140;SDS011;46330;50.822;7.126;2023-08-06T06:38:40;3.67;;;1.40;;
9140;SDS011;46330;50.822;7.126;2023-08-06T06:41:09;6.40;;;2.92;;
9140;SDS011;46330;50.822;7.126;2023-08-06T06:43:37;2.92;;;1.50;;
9140;SDS011;46330;50.822;7.126;2023-08-06T06:46:06;2.47;;;1.30;;
9140;SDS011;46330;50.822;7.126;2023-08-06T06:48:34;2.30;;;1.15;;
9140;SDS011;46330;50.822;7.126;2023-08-06T06:51:02;2.75;;;1.48;;
9140;SDS011;46330;50.822;7.126;2023-08-06T06:53:30;3.20;;;1.58;;
9140;SDS011;46330;50.822;7.126;2023-08-06T06:56:01;3.00;;;1.50;;
9140;SDS011;46330;50.822;7.126;2023-08-06T06:58:31;2.50;;;1.20;;
9140;SDS011;46330;50.822;7.126;2023-08-06T07:01:00;2.25;;;1.10;;
9140;SDS011;46330;50.822;7.126;2023-08-06T07:03:28;1.25;;;1.15;;
9140;SDS011;46330;50.822;7.126;2023-08-06T07:05:57;2.05;;;1.38;;
9140;SDS011;46330;50.822;7.126;2023-08-06T07:08:25;1.52;;;1.05;;
9140;SDS011;46330;50.822;7.126;2023-08-06T07:10:59;3.30;;;1.30;;
9140;SDS011;46330;50.822;7.126;2023-08-06T07:13:29;4.60;;;2.97;;
9140;SDS011;46330;50.822;7.126;2023-08-06T07:15:58;3.72;;;1.58;;
9140;SDS011;46330;50.822;7.126;2023-08-06T07:18:26;3.90;;;1.38;;
9140;SDS011;46330;50.822;7.126;2023-08-06T07:20:54;3.45;;;1.40;;
9140;SDS011;46330;50.822;7.126;2023-08-06T07:23:23;3.17;;;1.40;;
9140;SDS011;46330;50.822;7.126;2023-08-06T07:25:52;3.33;;;1.38;;
9140;SDS011;46330;50.822;7.126;2023-08-06T07:28:20;2.40;;;1.65;;
9140;SDS011;46330;50.822;7.126;2023-08-06T07:30:48;6.30;;;2.85;;
9140;SDS011;46330;50.822;7.126;2023-08-06T07:33:18;3.58;;;1.60;;
9140;SDS011;46330;50.822;7.126;2023-08-06T07:35:46;2.70;;;1.40;;
9140;SDS011;46330;50.822;7.126;2023-08-06T07:38:14;2.78;;;1.50;;
9140;SDS011;46330;50.822;7.126;2023-08-06T07:40:41;5.35;;;1.77;;
9140;SDS011;46330;50.822;7.126;2023-08-06T07:43:09;1.55;;;1.45;;
9140;SDS011;46330;50.822;7.126;2023-08-06T07:45:37;4.70;;;1.60;;
9140;SDS011;46330;50.822;7.126;2023-08-06T07:48:05;3.55;;;1.60;;
9140;SDS011;46330;50.822;7.126;2023-08-06T07:50:35;3.75;;;1.58;;
9140;SDS011;46330;50.822;7.126;2023-08-06T07:53:03;2.85;;;1.60;;
9140;SDS011;46330;50.822;7.126;2023-08-06T07:55:30;3.08;;;1.50;;
9140;SDS011;46330;50.822;7.126;2023-08-06T07:57:59;6.68;;;1.83;;
9140;SDS011;46330;50.822;7.126;2023-08-06T08:00:27;4.15;;;1.60;;
9140;SDS011;46330;50.822;7.126;2023-08-06T08:02:55;3.78;;;1.80;;
9140;SDS011;46330;50.822;7.126;2023-08-06T08:05:23;3.97;;;1.80;;
9140;SDS011;46330;50.822;7.126;2023-08-06T08:07:52;3.30;;;1.65;;
9140;SDS011;46330;50.822;7.126;2023-08-06T08:10:20;3.47;;;1.63;;
9140;SDS011;46330;50.822;7.126;2023-08-06T08:12:48;3.38;;;1.80;;
9140;SDS011;46330;50.822;7.126;2023-08-06T08:15:16;1.98;;;1.60;;
9140;SDS011;46330;50.822;7.126;2023-08-06T08:17:45;5.82;;;2.00;;
9140;SDS011;46330;50.822;7.126;2023-08-06T08:20:16;2.38;;;1.70;;
9140;SDS011;46330;50.822;7.126;2023-08-06T08:22:44;3.88;;;1.80;;
9140;SDS011;46330;50.822;7.126;2023-08-06T08:25:13;4.25;;;2.00;;
9140;SDS011;46330;50.822;7.126;2023-08-06T08:27:43;2.80;;;1.80;;
9140;SDS011;46330;50.822;7.126;2023-08-06T08:30:11;4.63;;;2.17;;
9140;SDS011;46330;50.822;7.126;2023-08-06T08:32:39;3.55;;;1.88;;
9140;SDS011;46330;50.822;7.126;2023-08-06T08:35:07;4.38;;;1.60;;
9140;SDS011;46330;50.822;7.126;2023-08-06T08:37:35;2.88;;;1.58;;
9140;SDS011;46330;50.822;7.126;2023-08-06T08:40:04;2.92;;;1.50;;
9140;SDS011;46330;50.822;7.126;2023-08-06T08:42:34;4.00;;;1.70;;
9140;SDS011;46330;50.822;7.126;2023-08-06T08:45:03;4.32;;;1.70;;
9140;SDS011;46330;50.822;7.126;2023-08-06T08:47:35;5.43;;;2.20;;
9140;SDS011;46330;50.822;7.126;2023-08-06T08:50:04;2.17;;;1.95;;
9140;SDS011;46330;50.822;7.126;2023-08-06T08:52:34;7.65;;;2.10;;
9140;SDS011;46330;50.822;7.126;2023-08-06T08:55:03;7.30;;;2.08;;
9140;SDS011;46330;50.822;7.126;2023-08-06T08:57:35;3.08;;;2.00;;
9140;SDS011;46330;50.822;7.126;2023-08-06T09:00:03;3.45;;;1.90;;
9140;SDS011;46330;50.822;7.126;2023-08-06T09:02:32;4.22;;;2.00;;
9140;SDS011;46330;50.822;7.126;2023-08-06T09:05:01;2.53;;;2.33;;
9140;SDS011;46330;50.822;7.126;2023-08-06T09:07:32;4.03;;;2.95;;
9140;SDS011;46330;50.822;7.126;2023-08-06T09:10:03;3.47;;;2.10;;
9140;SDS011;46330;50.822;7.126;2023-08-06T09:12:32;3.42;;;2.05;;
9140;SDS011;46330;50.822;7.126;2023-08-06T09:15:01;3.72;;;1.98;;
9140;SDS011;46330;50.822;7.126;2023-08-06T09:17:29;4.25;;;2.05;;
9140;SDS011;46330;50.822;7.126;2023-08-06T09:19:58;2.55;;;1.77;;
9140;SDS011;46330;50.822;7.126;2023-08-06T09:22:28;8.55;;;2.00;;
9140;SDS011;46330;50.822;7.126;2023-08-06T09:25:01;5.88;;;1.92;;
9140;SDS011;46330;50.822;7.126;2023-08-06T09:27:30;2.03;;;1.83;;
9140;SDS011;46330;50.822;7.126;2023-08-06T09:29:58;1.58;;;1.42;;
9140;SDS011;46330;50.822;7.126;2023-08-06T09:32:28;2.83;;;1.40;;
9140;SDS011;46330;50.822;7.126;2023-08-06T09:37:42;3.95;;;1.98;;
9140;SDS011;46330;50.822;7.126;2023-08-06T09:40:26;2.45;;;1.35;;
9140;SDS011;46330;50.822;7.126;2023-08-06T09:42:56;1.83;;;1.30;;
9140;SDS011;46330;50.822;7.126;2023-08-06T09:45:28;3.45;;;1.48;;
9140;SDS011;46330;50.822;7.126;2023-08-06T09:48:00;2.50;;;1.60;;
9140;SDS011;46330;50.822;7.126;2023-08-06T09:50:30;3.42;;;2.72;;
9140;SDS011;46330;50.822;7.126;2023-08-06T09:53:02;2.13;;;1.70;;
9140;SDS011;46330;50.822;7.126;2023-08-06T09:55:31;1.75;;;0.77;;
9140;SDS011;46330;50.822;7.126;2023-08-06T09:58:00;0.70;;;0.20;;
9140;SDS011;46330;50.822;7.126;2023-08-06T10:00:28;0.35;;;0.30;;
9140;SDS011;46330;50.822;7.126;2023-08-06T10:03:00;1.38;;;0.30;;
9140;SDS011;46330;50.822;7.126;2023-08-06T10:05:29;0.10;;;0.10;;
9140;SDS011;46330;50.822;7.126;2023-08-06T10:07:59;0.50;;;0.43;;
9140;SDS011;46330;50.822;7.126;2023-08-06T10:10:27;0.40;;;0.35;;
9140;SDS011;46330;50.822;7.126;2023-08-06T10:12:57;0.30;;;0.30;;
9140;SDS011;46330;50.822;7.126;2023-08-06T10:15:27;1.00;;;0.40;;
9140;SDS011;46330;50.822;7.126;2023-08-06T10:17:58;0.75;;;0.30;;
9140;SDS011;46330;50.822;7.126;2023-08-06T10:20:32;1.45;;;0.57;;
9140;SDS011;46330;50.822;7.126;2023-08-06T10:23:01;1.13;;;0.70;;
9140;SDS011;46330;50.822;7.126;2023-08-06T10:25:30;2.50;;;0.77;;
9140;SDS011;46330;50.822;7.126;2023-08-06T10:28:00;0.98;;;0.90;;
9140;SDS011;46330;50.822;7.126;2023-08-06T10:30:36;2.55;;;1.90;;
9140;SDS011;46330;50.822;7.126;2023-08-06T10:33:11;2.58;;;1.40;;
9140;SDS011;46330;50.822;7.126;2023-08-06T10:35:40;0.70;;;0.60;;
9140;SDS011;46330;50.822;7.126;2023-08-06T10:38:12;2.00;;;0.70;;
9140;SDS011;46330;50.822;7.126;2023-08-06T10:40:48;1.45;;;0.70;;
9140;SDS011;46330;50.822;7.126;2023-08-06T10:43:28;1.45;;;0.80;;
9140;SDS011;46330;50.822;7.126;2023-08-06T10:45:57;2.28;;;0.73;;
9140;SDS011;46330;50.822;7.126;2023-08-06T10:48:30;1.75;;;0.90;;
9140;SDS011;46330;50.822;7.126;2023-08-06T10:50:59;2.13;;;1.10;;
9140;SDS011;46330;50.822;7.126;2023-08-06T10:53:27;3.08;;;1.25;;
9140;SDS011;46330;50.822;7.126;2023-08-06T10:55:59;2.63;;;1.50;;
9140;SDS011;46330;50.822;7.126;2023-08-06T10:58:31;2.15;;;1.45;;
9140;SDS011;46330;50.822;7.126;2023-08-06T11:00:59;2.58;;;1.50;;
9140;SDS011;46330;50.822;7.126;2023-08-06T11:03:27;3.97;;;1.30;;
9140;SDS011;46330;50.822;7.126;2023-08-06T11:05:57;5.65;;;1.92;;
9140;SDS011;46330;50.822;7.126;2023-08-06T11:08:25;3.08;;;1.25;;
9140;SDS011;46330;50.822;7.126;2023-08-06T11:10:53;3.78;;;1.63;;
9140;SDS011;46330;50.822;7.126;2023-08-06T11:13:29;2.33;;;1.25;;
9140;SDS011;46330;50.822;7.126;2023-08-06T11:15:58;6.30;;;1.50;;
9140;SDS011;46330;50.822;7.126;2023-08-06T11:18:26;4.85;;;2.13;;
9140;SDS011;46330;50.822;7.126;2023-08-06T11:20:55;2.22;;;1.20;;
9140;SDS011;46330;50.822;7.126;2023-08-06T11:23:26;3.58;;;1.55;;
9140;SDS011;46330;50.822;7.126;2023-08-06T11:25:55;3.78;;;1.25;;
9140;SDS011;46330;50.822;7.126;2023-08-06T11:28:23;3.08;;;1.38;;
9140;SDS011;46330;50.822;7.126;2023-08-06T11:30:52;2.17;;;1.17;;
9140;SDS011;46330;50.822;7.126;2023-08-06T11:33:21;7.00;;;1.65;;
9140;SDS011;46330;50.822;7.126;2023-08-06T11:35:51;4.13;;;1.20;;
9140;SDS011;46330;50.822;7.126;2023-08-06T11:38:21;3.75;;;1.20;;
9140;SDS011;46330;50.822;7.126;2023-08-06T11:40:51;3.33;;;1.35;;
9140;SDS011;46330;50.822;7.126;2023-08-06T11:43:20;2.47;;;1.02;;
9140;SDS011;46330;50.822;7.126;2023-08-06T11:45:49;3.97;;;1.30;;
9140;SDS011;46330;50.822;7.126;2023-08-06T11:48:20;2.22;;;1.13;;
9140;SDS011;46330;50.822;7.126;2023-08-06T11:50:48;2.08;;;1.20;;
9140;SDS011;46330;50.822;7.126;2023-08-06T11:53:16;5.10;;;1.83;;
9140;SDS011;46330;50.822;7.126;2023-08-06T11:55:45;2.25;;;1.20;;
9140;SDS011;46330;50.822;7.126;2023-08-06T11:58:13;4.95;;;2.08;;
9140;SDS011;46330;50.822;7.126;2023-08-06T12:00:44;4.85;;;1.40;;
9140;SDS011;46330;50.822;7.126;2023-08-06T12:03:12;3.33;;;1.23;;
9140;SDS011;46330;50.822;7.126;2023-08-06T12:05:43;2.85;;;1.00;;
9140;SDS011;46330;50.822;7.126;2023-08-06T12:08:13;2.30;;;1.00;;
9140;SDS011;46330;50.822;7.126;2023-08-06T12:10:41;4.95;;;1.30;;
9140;SDS011;46330;50.822;7.126;2023-08-06T12:13:10;3.83;;;1.10;;
9140;SDS011;46330;50.822;7.126;2023-08-06T12:15:39;6.13;;;1.33;;
9140;SDS011;46330;50.822;7.126;2023-08-06T12:18:07;2.45;;;1.20;;
9140;SDS011;46330;50.822;7.126;2023-08-06T12:20:35;2.25;;;0.98;;
9140;SDS011;46330;50.822;7.126;2023-08-06T12:23:04;3.67;;;1.10;;
9140;SDS011;46330;50.822;7.126;2023-08-06T12:25:32;5.32;;;1.13;;
9140;SDS011;46330;50.822;7.126;2023-08-06T12:28:00;3.25;;;1.20;;
9140;SDS011;46330;50.822;7.126;2023-08-06T12:30:29;4.60;;;1.45;;
9140;SDS011;46330;50.822;7.126;2023-08-06T12:32:58;2.25;;;1.17;;
9140;SDS011;46330;50.822;7.126;2023-08-06T12:35:26;3.33;;;1.13;;
9140;SDS011;46330;50.822;7.126;2023-08-06T12:37:53;4.03;;;1.20;;
9140;SDS011;46330;50.822;7.126;2023-08-06T12:40:26;4.28;;;1.00;;
9140;SDS011;46330;50.822;7.126;2023-08-06T12:43:04;2.60;;;1.13;;
9140;SDS011;46330;50.822;7.126;2023-08-06T12:45:33;4.15;;;1.33;;
9140;SDS011;46330;50.822;7.126;2023-08-06T12:48:01;1.50;;;1.15;;
9140;SDS011;46330;50.822;7.126;2023-08-06T12:50:30;4.78;;;1.10;;
9140;SDS011;46330;50.822;7.126;2023-08-06T12:52:59;7.72;;;1.35;;
9140;SDS011;46330;50.822;7.126;2023-08-06T12:55:27;6.57;;;2.08;;
9140;SDS011;46330;50.822;7.126;2023-08-06T12:57:58;3.85;;;1.15;;
9140;SDS011;46330;50.822;7.126;2023-08-06T13:00:26;3.33;;;1.17;;
9140;SDS011;46330;50.822;7.126;2023-08-06T13:02:56;3.00;;;1.10;;
9140;SDS011;46330;50.822;7.126;2023-08-06T13:05:25;2.83;;;1.02;;
9140;SDS011;46330;50.822;7.126;2023-08-06T13:07:53;2.25;;;1.10;;
9140;SDS011;46330;50.822;7.126;2023-08-06T13:10:20;3.25;;;1.10;;
9140;SDS011;46330;50.822;7.126;2023-08-06T13:12:49;4.60;;;1.20;;
9140;SDS011;46330;50.822;7.126;2023-08-06T13:15:17;3.95;;;1.15;;
9140;SDS011;46330;50.822;7.126;2023-08-06T13:17:47;0.95;;;0.80;;
9140;SDS011;46330;50.822;7.126;2023-08-06T13:20:17;3.90;;;1.08;;
9140;SDS011;46330;50.822;7.126;2023-08-06T13:22:46;5.40;;;1.23;;
9140;SDS011;46330;50.822;7.126;2023-08-06T13:25:17;2.08;;;1.02;;
9140;SDS011;46330;50.822;7.126;2023-08-06T13:27:45;4.13;;;1.73;;
9140;SDS011;46330;50.822;7.126;2023-08-06T13:30:14;4.28;;;1.77;;
9140;SDS011;46330;50.822;7.126;2023-08-06T13:32:42;3.53;;;1.48;;
9140;SDS011;46330;50.822;7.126;2023-08-06T13:35:10;3.17;;;1.50;;
9140;SDS011;46330;50.822;7.126;2023-08-06T13:37:40;3.40;;;1.55;;
9140;SDS011;46330;50.822;7.126;2023-08-06T13:40:08;3.25;;;1.65;;
9140;SDS011;46330;50.822;7.126;2023-08-06T13:42:36;3.58;;;1.50;;
9140;SDS011;46330;50.822;7.126;2023-08-06T13:45:04;3.03;;;1.70;;
9140;SDS011;46330;50.822;7.126;2023-08-06T13:47:33;4.55;;;1.70;;
9140;SDS011;46330;50.822;7.126;2023-08-06T13:50:02;4.22;;;2.22;;
9140;SDS011;46330;50.822;7.126;2023-08-06T13:52:31;4.60;;;1.80;;
9140;SDS011;46330;50.822;7.126;2023-08-06T13:55:00;3.35;;;1.58;;
9140;SDS011;46330;50.822;7.126;2023-08-06T13:57:30;3.85;;;1.70;;
9140;SDS011;46330;50.822;7.126;2023-08-06T13:59:58;4.72;;;1.70;;
9140;SDS011;46330;50.822;7.126;2023-08-06T14:02:26;4.75;;;1.80;;
9140;SDS011;46330;50.822;7.126;2023-08-06T14:04:54;3.50;;;2.00;;
9140;SDS011;46330;50.822;7.126;2023-08-06T14:07:22;5.45;;;2.70;;
9140;SDS011;46330;50.822;7.126;2023-08-06T14:09:50;4.78;;;1.90;;
9140;SDS011;46330;50.822;7.126;2023-08-06T14:12:19;3.15;;;1.80;;
9140;SDS011;46330;50.822;7.126;2023-08-06T14:14:47;4.70;;;1.90;;
9140;SDS011;46330;50.822;7.126;2023-08-06T14:17:15;3.40;;;1.52;;
9140;SDS011;46330;50.822;7.126;2023-08-06T14:19:43;3.33;;;1.42;;
9140;SDS011;46330;50.822;7.126;2023-08-06T14:22:11;2.63;;;1.20;;
9140;SDS011;46330;50.822;7.126;2023-08-06T14:24:39;2.90;;;1.30;;
9140;SDS011;46330;50.822;7.126;2023-08-06T14:27:08;2.63;;;1.30;;
9140;SDS011;46330;50.822;7.126;2023-08-06T14:29:37;2.38;;;1.30;;
9140;SDS011;46330;50.822;7.126;2023-08-06T14:32:05;3.55;;;1.10;;
9140;SDS011;46330;50.822;7.126;2023-08-06T14:34:34;4.60;;;1.30;;
9140;SDS011;46330;50.822;7.126;2023-08-06T14:37:02;4.30;;;1.15;;
9140;SDS011;46330;50.822;7.126;2023-08-06T14:39:31;3.15;;;1.25;;
9140;SDS011;46330;50.822;7.126;2023-08-06T14:41:59;3.72;;;1.20;;
9140;SDS011;46330;50.822;7.126;2023-08-06T14:44:26;3.45;;;1.13;;
9140;SDS011;46330;50.822;7.126;2023-08-06T14:46:56;4.80;;;1.05;;
9140;SDS011;46330;50.822;7.126;2023-08-06T14:49:24;5.47;;;0.90;;
9140;SDS011;46330;50.822;7.126;2023-08-06T14:51:52;2.78;;;1.20;;
9140;SDS011;46330;50.822;7.126;2023-08-06T14:54:20;2.97;;;1.00;;
9140;SDS011;46330;50.822;7.126;2023-08-06T14:56:48;3.33;;;0.95;;
9140;SDS011;46330;50.822;7.126;2023-08-06T14:59:16;5.60;;;1.30;;
9140;SDS011;46330;50.822;7.126;2023-08-06T15:01:44;2.45;;;0.82;;
9140;SDS011;46330;50.822;7.126;2023-08-06T15:04:13;5.07;;;0.70;;
9140;SDS011;46330;50.822;7.126;2023-08-06T15:06:41;2.00;;;0.80;;
9140;SDS011;46330;50.822;7.126;2023-08-06T15:09:09;2.40;;;1.30;;
9140;SDS011;46330;50.822;7.126;2023-08-06T15:11:37;1.60;;;0.70;;
9140;SDS011;46330;50.822;7.126;2023-08-06T15:14:05;1.95;;;0.80;;